Terminal Aerodrome Forecast
Issued by NWS

Home | Current Version | Previous Version | Text Only | Print | Product List | Glossary On
Versions: 1 2 3 4 5 6 7 8 9 10 11 12 13 14 15
000
FTUS44 KTSA 110500
TAFFYV
TAF
KFYV 110520Z 1106/1206 VRB02KT 4SM BR BKN120
     FM111000 00000KT 1SM BR SCT003
     FM111300 VRB02KT 4SM BR SCT250
     FM111500 16006KT P6SM SCT250
     FM111900 20009KT P6SM SCT040
     FM120000 18003KT P6SM SCT250=

USA.gov is the U.S. government's official web portal to all federal, state and local government web resources and services.